»·PEaware :: GSA5150 KSAN-KMRY

GSA5150 :: KSAN-KMRY

FLIGHT INFORMATION

Flight Status: Arrived
Operator:
Global Sim Alliance
More flights by this operator :: More flights under this callsign
Pilot: Anonymous 17686 (17686)
Aircraft: BOEING 737-800
(B738)
More flights by this aircraft type
Origin: KSAN San Diego Intl-Lindbergh
United States
Destination: KMRY Monterey Peninsula
United States
More flights between these airports :: More routes between these airports
Route: +PADRZ2 IKAYE RIZIN SPLNT STOKD BSR PEBBS1
File this flight plan on PilotEdge
Remarks:
Altitude:
(Current/Filed)
34,000ft
Speed:
(Current/Filed)
450kts
Departed: 29-Dec-17 10:56 PM
Arrived: 29-Dec-17 11:54 PM
Distance/Time
Traveled:
326nm/0:58
Distance/Time
To Go:
Arrived

Flight Plot

Page will automatically refresh every two minutes.

Flight plan parsing failed; only flown route is shown


Map Options




Map Legend


Flown Route
Filed Route
Departure Airport
Arrival Airport
Navaid (VOR, NDB)
Fix

Horizontal Profiles

Position Reports

Time Latitude Longitude Heading Altitude Ground
Speed
29-Dec-17 22:27 32.733159 -117.195675 227 22ft 0kts
29-Dec-17 22:28 32.733159 -117.195675 227 22ft 0kts
29-Dec-17 22:29 32.733159 -117.195675 227 22ft 0kts
29-Dec-17 22:30 32.733159 -117.195675 227 22ft 0kts
29-Dec-17 22:31 32.733159 -117.195675 227 22ft 0kts
29-Dec-17 22:32 32.733159 -117.195675 227 22ft 0kts
29-Dec-17 22:33 32.733159 -117.195675 227 22ft 0kts
29-Dec-17 22:34 32.733159 -117.195675 227 22ft 0kts
29-Dec-17 22:35 32.733159 -117.195675 227 22ft 0kts
29-Dec-17 22:36 32.733159 -117.195675 227 22ft 0kts
29-Dec-17 22:37 32.733159 -117.195675 227 22ft 0kts
29-Dec-17 22:38 32.733159 -117.195675 227 22ft 0kts
29-Dec-17 22:39 32.733159 -117.195675 227 22ft 0kts
29-Dec-17 22:40 32.733159 -117.195675 227 22ft 0kts
29-Dec-17 22:41 32.733159 -117.195675 227 22ft 0kts
29-Dec-17 22:42 32.733159 -117.195675 227 22ft 0kts
29-Dec-17 22:43 32.733159 -117.195675 227 22ft 0kts
29-Dec-17 22:44 32.733159 -117.195675 227 22ft 0kts
29-Dec-17 22:45 32.733159 -117.195675 227 22ft 0kts
29-Dec-17 22:46 32.733159 -117.195675 227 22ft 0kts
29-Dec-17 22:47 32.733159 -117.195675 227 22ft 0kts
29-Dec-17 22:48 32.733159 -117.195675 227 22ft 0kts
29-Dec-17 22:49 32.733159 -117.195675 227 22ft 0kts
29-Dec-17 22:50 32.733159 -117.195675 227 22ft 0kts
29-Dec-17 22:51 32.733457 -117.195358 209 22ft 0kts
29-Dec-17 22:52 32.733457 -117.195358 209 22ft 0kts
29-Dec-17 22:53 32.733457 -117.195358 209 22ft 0kts
29-Dec-17 22:54 32.733302 -117.195335 133 22ft 2kts
29-Dec-17 22:55 32.732919 -117.191266 106 22ft 22kts
29-Dec-17 22:56 32.731695 -117.186095 103 22ft 15kts
29-Dec-17 22:57 32.730594 -117.181596 104 22ft 4kts
29-Dec-17 22:58 32.729713 -117.178042 107 22ft 13kts
29-Dec-17 22:59 32.729559 -117.177201 94 22ft 6kts
29-Dec-17 23:00 32.730348 -117.176542 284 22ft 0kts
29-Dec-17 23:01 32.730365 -117.176618 284 22ft 5kts
29-Dec-17 23:02 32.739527 -117.213181 288 817ft 178kts
29-Dec-17 23:03 32.765807 -117.269895 293 2391ft 272kts
29-Dec-17 23:04 32.810922 -117.337659 309 5949ft 277kts
29-Dec-17 23:05 32.859804 -117.411706 306 9125ft 293kts
29-Dec-17 23:06 32.911528 -117.492022 306 11427ft 334kts
29-Dec-17 23:07 32.973245 -117.588011 306 13103ft 381kts
29-Dec-17 23:08 33.038862 -117.690671 306 15475ft 398kts
29-Dec-17 23:09 33.118868 -117.786013 319 17678ft 415kts
29-Dec-17 23:10 33.200654 -117.885340 311 19873ft 426kts
29-Dec-17 23:11 33.280292 -117.991651 311 21948ft 434kts
29-Dec-17 23:12 33.361809 -118.100886 311 23716ft 443kts
29-Dec-17 23:13 33.444603 -118.211553 311 25417ft 450kts
29-Dec-17 23:14 33.528649 -118.324351 310 26946ft 455kts
29-Dec-17 23:15 33.610372 -118.434513 310 28222ft 461kts
29-Dec-17 23:16 33.695320 -118.549428 310 29838ft 456kts
29-Dec-17 23:17 33.777898 -118.661530 310 31346ft 452kts
29-Dec-17 23:18 33.860761 -118.774331 310 32740ft 449kts
29-Dec-17 23:19 33.943008 -118.886660 310 34038ft 446kts
29-Dec-17 23:20 34.024926 -118.998877 309 34170ft 446kts
29-Dec-17 23:21 34.105846 -119.110108 309 34169ft 441kts
29-Dec-17 23:22 34.186863 -119.221796 309 34180ft 441kts
29-Dec-17 23:23 34.267705 -119.333251 309 34183ft 441kts
29-Dec-17 23:24 34.348173 -119.444989 309 34190ft 441kts
29-Dec-17 23:25 34.429037 -119.556116 311 34191ft 442kts
29-Dec-17 23:26 34.515848 -119.662032 312 34187ft 442kts
29-Dec-17 23:27 34.602099 -119.768146 312 34187ft 442kts
29-Dec-17 23:28 34.688398 -119.874669 312 34187ft 441kts
29-Dec-17 23:29 34.774215 -119.980919 312 34188ft 440kts
29-Dec-17 23:30 34.859754 -120.087368 312 34191ft 440kts
29-Dec-17 23:31 34.945089 -120.193667 311 34191ft 439kts
29-Dec-17 23:32 35.029968 -120.300234 311 34160ft 439kts
29-Dec-17 23:33 35.116212 -120.406302 314 32834ft 440kts
29-Dec-17 23:34 35.205833 -120.505607 314 30618ft 429kts
29-Dec-17 23:35 35.292577 -120.602470 314 28673ft 417kts
29-Dec-17 23:36 35.376993 -120.697573 313 26768ft 406kts
29-Dec-17 23:37 35.459090 -120.790539 313 24900ft 398kts
29-Dec-17 23:38 35.538750 -120.882801 313 23050ft 390kts
29-Dec-17 23:39 35.616863 -120.974266 312 21213ft 384kts
29-Dec-17 23:40 35.693278 -121.064095 312 19402ft 377kts
29-Dec-17 23:41 35.768748 -121.152707 312 17619ft 371kts
29-Dec-17 23:42 35.843557 -121.240732 313 15651ft 369kts
29-Dec-17 23:43 35.916725 -121.327210 313 13929ft 360kts
29-Dec-17 23:44 35.988485 -121.412031 313 12254ft 352kts
29-Dec-17 23:45 36.057305 -121.493887 314 11046ft 325kts
29-Dec-17 23:46 36.118263 -121.566690 314 10372ft 290kts
29-Dec-17 23:47 36.174504 -121.633949 315 9536ft 275kts
29-Dec-17 23:48 36.235600 -121.689386 325 8358ft 272kts
29-Dec-17 23:49 36.288142 -121.734479 325 7508ft 273kts
29-Dec-17 23:50 36.349711 -121.787831 325 6323ft 268kts
29-Dec-17 23:51 36.420079 -121.849083 325 4920ft 262kts
29-Dec-17 23:52 36.467825 -121.890909 324 4427ft 236kts
29-Dec-17 23:53 36.520624 -121.933968 343 3491ft 222kts
29-Dec-17 23:54 36.563715 -121.901522 94 3003ft 220kts
29-Dec-17 23:55 36.538754 -121.816866 111 3009ft 223kts
29-Dec-17 23:56 36.520877 -121.759516 102 3107ft 201kts
29-Dec-17 23:57 36.554670 -121.719043 344 2111ft 213kts
29-Dec-17 23:58 36.574182 -121.777431 263 1303ft 182kts
29-Dec-17 23:59 36.583664 -121.834367 293 259ft 152kts
30-Dec-17 00:00 36.589217 -121.853504 108 213ft 6kts
30-Dec-17 00:01 36.588711 -121.851883 113 213ft 0kts
30-Dec-17 00:02 36.588709 -121.851878 113 213ft 0kts
30-Dec-17 00:03 36.588707 -121.851873 113 213ft 0kts
30-Dec-17 00:04 36.588672 -121.851774 113 213ft 3kts
30-Dec-17 00:05 36.587684 -121.849785 246 212ft 3kts
30-Dec-17 00:06 36.587626 -121.849940 243 213ft 0kts
30-Dec-17 00:07 36.587626 -121.849940 243 213ft 0kts
30-Dec-17 00:08 36.587626 -121.849940 243 213ft 0kts
30-Dec-17 00:09 36.587626 -121.849940 243 213ft 0kts
30-Dec-17 00:10 36.587626 -121.849940 243 213ft 0kts
30-Dec-17 00:11 36.587626 -121.849940 243 213ft 0kts
30-Dec-17 00:12 36.587626 -121.849940 243 213ft 0kts
30-Dec-17 00:13 36.587626 -121.849940 243 213ft 0kts
30-Dec-17 00:14 36.587626 -121.849940 243 213ft 0kts

Navigation Log

Ident Type
Flight plan parsing failed, navigation log unavailable